createdAt,value
2017-12-23T00:01:42.210Z,3.10
2017-12-23T00:04:08.109Z,3.30
2017-12-23T00:06:40.840Z,3.27
2017-12-23T00:09:06.737Z,3.17
2017-12-23T00:11:32.638Z,2.80
2017-12-23T00:13:58.565Z,2.70
2017-12-23T00:16:24.482Z,2.50
2017-12-23T00:18:50.353Z,3.07
2017-12-23T00:21:16.228Z,2.80
2017-12-23T00:23:43.341Z,2.37
2017-12-23T00:26:09.550Z,2.30
2017-12-23T00:28:39.375Z,2.75
2017-12-23T00:31:05.265Z,2.80
2017-12-23T00:33:34.623Z,2.60
2017-12-23T00:36:00.552Z,2.70
2017-12-23T00:38:27.341Z,2.23
2017-12-23T00:40:53.246Z,2.17
2017-12-23T00:43:22.117Z,1.57
2017-12-23T00:45:47.979Z,2.50
2017-12-23T00:48:13.876Z,2.30
2017-12-23T00:50:39.757Z,2.30
2017-12-23T00:53:05.639Z,2.00
2017-12-23T00:55:35.034Z,2.10
2017-12-23T00:58:00.962Z,1.20
2017-12-23T01:00:28.593Z,1.40
2017-12-23T01:02:55.501Z,1.70
2017-12-23T01:05:25.317Z,1.52
2017-12-23T01:07:51.211Z,1.33
2017-12-23T01:10:18.106Z,1.67
2017-12-23T01:12:43.982Z,1.48
2017-12-23T01:15:16.599Z,1.80
2017-12-23T01:17:42.492Z,1.70
2017-12-23T01:20:08.387Z,1.60
2017-12-23T01:22:34.278Z,1.53
2017-12-23T01:25:03.292Z,1.87
2017-12-23T01:27:29.380Z,1.50
2017-12-23T01:29:55.317Z,1.60
2017-12-23T01:32:21.232Z,1.63
2017-12-23T01:34:47.108Z,1.80
2017-12-23T01:37:14.017Z,1.80
2017-12-23T01:39:39.912Z,1.70
2017-12-23T01:42:08.801Z,2.20
2017-12-23T01:44:34.722Z,1.92
2017-12-23T01:47:03.465Z,2.50
2017-12-23T01:49:29.405Z,2.60
2017-12-23T01:51:58.121Z,2.60
2017-12-23T01:54:24.057Z,2.78
2017-12-23T01:56:52.872Z,2.60
2017-12-23T01:59:18.752Z,2.60
2017-12-23T02:01:44.676Z,3.03
2017-12-23T02:04:10.581Z,2.77
2017-12-23T02:06:38.227Z,3.13
2017-12-23T02:09:04.844Z,3.10
2017-12-23T02:11:30.880Z,3.03
2017-12-23T02:14:00.727Z,2.33
2017-12-23T02:16:26.633Z,2.65
2017-12-23T02:18:55.665Z,2.57
2017-12-23T02:21:21.581Z,3.08
2017-12-23T02:23:48.807Z,3.40
2017-12-23T02:26:14.687Z,2.92
2017-12-23T02:28:43.378Z,4.00
2017-12-23T02:31:09.306Z,3.58
2017-12-23T02:33:38.075Z,3.70
2017-12-23T02:36:03.980Z,3.40
2017-12-23T02:38:29.851Z,3.80
2017-12-23T02:40:55.736Z,3.73
2017-12-23T02:43:21.652Z,3.47
2017-12-23T02:45:50.081Z,2.77
2017-12-23T02:48:16.017Z,2.22
2017-12-23T02:50:44.984Z,2.80
2017-12-23T02:53:11.037Z,2.65
2017-12-23T02:55:40.303Z,2.00
2017-12-23T02:58:06.161Z,2.90
2017-12-23T03:00:35.617Z,2.90
2017-12-23T03:03:01.498Z,3.12
2017-12-23T03:05:30.570Z,3.13
2017-12-23T03:07:56.497Z,2.35
2017-12-23T03:10:25.412Z,3.90
2017-12-23T03:12:51.307Z,3.53
2017-12-23T03:15:17.194Z,3.53
2017-12-23T03:17:43.130Z,4.13
2017-12-23T03:20:08.986Z,4.47
2017-12-23T03:22:35.883Z,5.30
2017-12-23T03:25:01.789Z,4.82
2017-12-23T03:27:31.420Z,4.40
2017-12-23T03:30:10.330Z,3.80
2017-12-23T03:32:36.190Z,5.32
2017-12-23T03:35:02.112Z,6.50
2017-12-23T03:37:28.129Z,5.27
2017-12-23T03:39:54.057Z,5.75
2017-12-23T03:42:19.948Z,5.57
2017-12-23T03:44:45.850Z,6.80
2017-12-23T03:47:11.757Z,6.10
2017-12-23T03:49:37.676Z,6.20
2017-12-23T03:52:04.663Z,5.73
2017-12-23T03:54:30.603Z,6.37
2017-12-23T03:56:56.456Z,6.07
2017-12-23T03:59:22.345Z,6.40
2017-12-23T04:01:48.280Z,7.17
2017-12-23T04:04:15.378Z,6.40
2017-12-23T04:06:41.292Z,6.50
2017-12-23T04:09:10.945Z,6.43
2017-12-23T04:11:36.845Z,6.45
2017-12-23T04:14:04.710Z,7.13
2017-12-23T04:16:30.599Z,5.97
2017-12-23T04:18:59.258Z,7.27
2017-12-23T04:21:25.135Z,7.07
2017-12-23T04:23:53.882Z,6.20
2017-12-23T04:26:19.758Z,5.93
2017-12-23T04:28:45.760Z,6.90
2017-12-23T04:31:11.698Z,6.72
2017-12-23T04:33:37.719Z,7.30
2017-12-23T04:36:05.956Z,9.02
2017-12-23T04:38:31.813Z,9.77
2017-12-23T04:41:00.400Z,8.00
2017-12-23T04:43:26.311Z,7.93
2017-12-23T04:45:54.995Z,8.50
2017-12-23T04:48:20.884Z,9.32
2017-12-23T04:53:17.788Z,11.15
2017-12-23T04:55:44.857Z,10.47
2017-12-23T04:58:10.735Z,11.73
2017-12-23T05:00:39.451Z,12.20
2017-12-23T05:03:05.367Z,9.38
2017-12-23T05:05:31.257Z,10.43
2017-12-23T05:07:57.161Z,9.00
2017-12-23T05:10:23.091Z,7.63
2017-12-23T05:12:52.406Z,9.20
2017-12-23T05:15:18.263Z,7.20
2017-12-23T05:17:47.899Z,7.33
2017-12-23T05:20:13.779Z,8.43
2017-12-23T05:22:40.537Z,7.73
2017-12-23T05:25:06.476Z,7.78
2017-12-23T05:27:36.190Z,8.70
2017-12-23T05:30:02.088Z,7.93
2017-12-23T05:32:31.516Z,8.20
2017-12-23T05:34:57.417Z,7.70
2017-12-23T05:37:26.489Z,8.43
2017-12-23T05:39:52.368Z,9.02
2017-12-23T05:42:18.241Z,8.33
2017-12-23T05:44:44.145Z,8.17
2017-12-23T05:47:10.010Z,7.10
2017-12-23T05:49:36.851Z,7.73
2017-12-23T05:52:02.741Z,6.93
2017-12-23T05:54:31.333Z,8.30
2017-12-23T05:56:57.227Z,8.32
2017-12-23T05:59:25.995Z,10.40
2017-12-23T06:01:52.050Z,8.80
2017-12-23T06:04:21.132Z,8.15
2017-12-23T06:06:47.026Z,8.30
2017-12-23T06:09:16.098Z,6.80
2017-12-23T06:11:41.973Z,8.60
2017-12-23T06:14:10.234Z,7.80
2017-12-23T06:16:36.127Z,7.32
2017-12-23T06:19:02.018Z,7.83
2017-12-23T06:21:27.867Z,8.47
2017-12-23T06:23:53.833Z,8.77
2017-12-23T06:26:23.236Z,8.23
2017-12-23T06:28:49.088Z,8.52
2017-12-23T06:31:16.523Z,8.70
2017-12-23T06:33:42.378Z,8.45
2017-12-23T06:36:11.250Z,8.23
2017-12-23T06:38:37.158Z,9.13
2017-12-23T06:41:06.673Z,8.30
2017-12-23T06:43:32.590Z,10.75
2017-12-23T06:46:02.591Z,10.10
2017-12-23T06:48:28.470Z,9.10
2017-12-23T06:50:55.399Z,8.40
2017-12-23T06:53:21.235Z,9.60
2017-12-23T06:55:47.202Z,9.50
2017-12-23T06:58:13.104Z,8.90
2017-12-23T07:00:39.054Z,9.73
2017-12-23T07:03:08.806Z,8.20
2017-12-23T07:05:34.738Z,9.75
2017-12-23T07:08:02.632Z,9.80
2017-12-23T07:10:28.537Z,9.23
2017-12-23T07:12:57.999Z,9.60
2017-12-23T07:15:23.862Z,10.32
2017-12-23T07:17:53.053Z,9.60
2017-12-23T07:20:18.982Z,9.60
2017-12-23T07:22:46.413Z,9.40
2017-12-23T07:25:12.311Z,9.52
2017-12-23T07:30:32.188Z,11.20
2017-12-23T07:33:01.730Z,10.20
2017-12-23T07:35:27.632Z,11.02
2017-12-23T07:37:53.492Z,10.83
2017-12-23T07:40:19.391Z,9.23
2017-12-23T07:42:45.231Z,9.60
2017-12-23T07:45:11.131Z,10.70
2017-12-23T07:47:36.942Z,9.57
2017-12-23T07:50:02.799Z,8.60
2017-12-23T07:52:28.655Z,9.93
2017-12-23T07:54:54.495Z,9.63
2017-12-23T07:57:20.375Z,10.70
2017-12-23T07:59:46.209Z,9.03
2017-12-23T08:02:12.055Z,8.77
2017-12-23T08:04:37.933Z,14.20
2017-12-23T08:07:03.783Z,13.90
2017-12-23T08:09:29.762Z,9.27
2017-12-23T08:11:55.600Z,10.13
2017-12-23T08:14:21.446Z,8.13
2017-12-23T08:16:47.324Z,8.00
2017-12-23T08:19:13.118Z,9.30
2017-12-23T08:21:38.928Z,10.13
2017-12-23T08:24:04.795Z,8.67
2017-12-23T08:26:30.657Z,9.10
2017-12-23T08:28:56.522Z,7.37
2017-12-23T08:31:22.425Z,7.30
2017-12-23T08:33:48.303Z,7.13
2017-12-23T08:36:17.401Z,8.87
2017-12-23T08:38:43.276Z,8.10
2017-12-23T08:41:13.076Z,8.53
2017-12-23T08:43:38.929Z,8.05
2017-12-23T08:46:04.767Z,7.70
2017-12-23T08:48:30.673Z,7.97
2017-12-23T08:50:56.534Z,7.30
2017-12-23T08:53:23.234Z,7.50
2017-12-23T08:55:49.046Z,6.80
2017-12-23T08:58:19.605Z,9.00
2017-12-23T09:00:45.420Z,5.90
2017-12-23T09:03:13.282Z,8.30
2017-12-23T09:05:39.122Z,6.55
2017-12-23T09:08:08.197Z,6.83
2017-12-23T09:10:34.050Z,7.07
2017-12-23T09:13:03.535Z,6.93
2017-12-23T09:15:29.433Z,8.85
2017-12-23T09:17:56.711Z,14.73
2017-12-23T09:20:22.573Z,17.62
2017-12-23T09:22:48.447Z,10.07
2017-12-23T09:25:14.436Z,8.27
2017-12-23T09:27:40.318Z,10.05
2017-12-23T09:30:09.460Z,9.90
2017-12-23T09:32:35.306Z,11.07
2017-12-23T09:35:04.762Z,7.53
2017-12-23T09:37:30.658Z,7.00
2017-12-23T09:39:59.742Z,6.13
2017-12-23T09:42:26.274Z,11.18
2017-12-23T09:44:53.577Z,7.90
2017-12-23T09:47:19.474Z,6.60
2017-12-23T09:49:48.432Z,8.43
2017-12-23T09:52:14.284Z,5.60
2017-12-23T09:54:42.127Z,6.20
2017-12-23T09:57:08.028Z,6.85
2017-12-23T09:59:33.890Z,4.23
2017-12-23T10:01:59.741Z,5.80
2017-12-23T10:04:25.580Z,3.63
2017-12-23T10:06:55.196Z,3.80
2017-12-23T10:09:21.027Z,3.92
2017-12-23T10:11:50.282Z,2.87
2017-12-23T10:14:16.158Z,2.97
2017-12-23T10:16:43.244Z,3.33
2017-12-23T10:19:09.090Z,4.43
2017-12-23T10:21:37.834Z,3.97
2017-12-23T10:24:03.760Z,4.20
2017-12-23T10:26:32.743Z,5.13
2017-12-23T10:28:58.579Z,3.95
2017-12-23T10:31:27.261Z,3.25
2017-12-23T10:33:53.130Z,4.68
2017-12-23T10:36:19.037Z,3.90
2017-12-23T10:38:44.936Z,4.10
2017-12-23T10:41:10.782Z,4.67
2017-12-23T10:43:39.970Z,5.10
2017-12-23T10:46:05.832Z,6.53
2017-12-23T10:48:35.131Z,6.67
2017-12-23T10:51:00.938Z,7.07
2017-12-23T10:53:28.426Z,6.90
2017-12-23T10:55:54.267Z,4.30
2017-12-23T10:58:22.977Z,5.43
2017-12-23T11:00:48.836Z,11.10
2017-12-23T11:03:18.184Z,15.33
2017-12-23T11:05:44.120Z,4.22
2017-12-23T11:08:13.466Z,4.77
2017-12-23T11:10:39.284Z,4.05
2017-12-23T11:13:05.149Z,4.00
2017-12-23T11:15:31.019Z,3.20
2017-12-23T11:17:56.891Z,4.33
2017-12-23T11:20:25.939Z,2.70
2017-12-23T11:22:51.803Z,3.65
2017-12-23T11:25:19.468Z,2.20
2017-12-23T11:27:45.315Z,2.25
2017-12-23T11:30:14.325Z,2.10
2017-12-23T11:32:40.219Z,2.30
2017-12-23T11:35:09.395Z,2.50
2017-12-23T11:37:35.238Z,2.10
2017-12-23T11:40:03.377Z,1.77
2017-12-23T11:42:29.248Z,1.75
2017-12-23T11:44:57.860Z,2.37
2017-12-23T11:47:23.708Z,1.83
2017-12-23T11:49:49.555Z,2.67
2017-12-23T11:52:15.474Z,2.37
2017-12-23T11:54:41.331Z,1.50
2017-12-23T11:57:11.019Z,4.00
2017-12-23T11:59:36.881Z,1.70
2017-12-23T12:02:04.411Z,1.50
2017-12-23T12:04:30.336Z,2.90
2017-12-23T12:06:59.714Z,1.87
2017-12-23T12:09:25.552Z,3.05
2017-12-23T12:11:54.443Z,2.17
2017-12-23T12:14:20.302Z,2.92
2017-12-23T12:16:48.599Z,1.90
2017-12-23T12:19:14.440Z,1.62
2017-12-23T12:21:43.335Z,1.53
2017-12-23T12:24:09.183Z,1.77
2017-12-23T12:26:35.022Z,1.47
2017-12-23T12:29:00.874Z,1.30
2017-12-23T12:31:26.712Z,1.80
2017-12-23T12:33:54.967Z,1.83
2017-12-23T12:36:20.797Z,1.50
2017-12-23T12:38:51.300Z,1.30
2017-12-23T12:41:17.211Z,2.35
2017-12-23T12:43:46.000Z,3.07
2017-12-23T12:46:11.871Z,2.10
2017-12-23T12:48:40.810Z,2.43
2017-12-23T12:51:06.664Z,2.30
2017-12-23T12:53:34.598Z,2.97
2017-12-23T12:56:01.991Z,5.15
2017-12-23T12:58:28.793Z,2.53
2017-12-23T13:00:54.721Z,6.25
2017-12-23T13:03:20.553Z,6.50
2017-12-23T13:05:46.405Z,6.70
2017-12-23T13:08:12.287Z,3.30
2017-12-23T13:10:40.440Z,3.00
2017-12-23T13:13:06.343Z,1.95
2017-12-23T13:15:35.844Z,3.27
2017-12-23T13:18:01.678Z,2.90
2017-12-23T13:20:31.457Z,1.70
2017-12-23T13:22:57.305Z,3.03
2017-12-23T13:25:24.218Z,3.60
2017-12-23T13:27:50.088Z,2.17
2017-12-23T13:30:18.779Z,3.63
2017-12-23T13:32:44.651Z,3.40
2017-12-23T13:35:14.345Z,1.67
2017-12-23T13:37:40.308Z,2.83
2017-12-23T13:40:06.158Z,3.27
2017-12-23T13:42:32.055Z,3.47
2017-12-23T13:44:57.922Z,2.00
2017-12-23T13:47:26.808Z,2.90
2017-12-23T13:49:52.652Z,3.28
2017-12-23T13:52:21.721Z,2.10
2017-12-23T13:54:47.560Z,2.90
2017-12-23T13:57:16.791Z,3.87
2017-12-23T13:59:42.758Z,6.03
2017-12-23T14:02:10.109Z,4.70
2017-12-23T14:04:35.985Z,3.00
2017-12-23T14:07:06.568Z,3.83
2017-12-23T14:09:32.414Z,3.40
2017-12-23T14:12:01.373Z,3.87
2017-12-23T14:14:27.195Z,3.83
2017-12-23T14:16:53.093Z,5.50
2017-12-23T14:19:18.958Z,4.70
2017-12-23T14:21:47.371Z,4.73
2017-12-23T14:24:13.228Z,4.05
2017-12-23T14:26:39.085Z,2.70
2017-12-23T14:29:06.401Z,3.43
2017-12-23T14:31:32.256Z,3.45
2017-12-23T14:34:00.941Z,4.52
2017-12-23T14:36:26.794Z,3.12
2017-12-23T14:38:56.495Z,3.33
2017-12-23T14:41:22.346Z,3.65
2017-12-23T14:43:51.250Z,3.33
2017-12-23T14:46:17.123Z,3.55
2017-12-23T14:48:46.313Z,3.70
2017-12-23T14:51:12.205Z,4.15
2017-12-23T14:53:38.081Z,3.13
2017-12-23T14:56:03.965Z,3.50
2017-12-23T14:58:30.528Z,3.57
2017-12-23T15:00:57.180Z,2.60
2017-12-23T15:03:23.048Z,2.53
2017-12-23T15:05:52.249Z,2.90
2017-12-23T15:08:18.171Z,2.70
2017-12-23T15:10:46.350Z,3.30
2017-12-23T15:13:12.200Z,2.42
2017-12-23T15:15:40.818Z,2.83
2017-12-23T15:18:06.722Z,3.53
2017-12-23T15:20:35.486Z,3.40
2017-12-23T15:23:01.338Z,2.78
2017-12-23T15:25:30.153Z,2.00
2017-12-23T15:27:56.019Z,5.30
2017-12-23T15:30:21.840Z,5.10
2017-12-23T15:32:47.710Z,6.90
2017-12-23T15:35:13.563Z,4.53
2017-12-23T15:37:42.048Z,6.13
2017-12-23T15:40:07.907Z,6.43
2017-12-23T15:42:36.594Z,4.57
2017-12-23T15:45:02.452Z,3.58
2017-12-23T15:47:31.475Z,2.97
2017-12-23T15:49:57.346Z,2.75
2017-12-23T15:52:26.077Z,2.60
2017-12-23T15:54:51.896Z,3.72
2017-12-23T15:57:20.675Z,3.03
2017-12-23T15:59:46.557Z,3.20
2017-12-23T16:02:15.234Z,3.43
2017-12-23T16:04:41.070Z,3.45
2017-12-23T16:07:06.943Z,3.40
2017-12-23T16:09:32.807Z,3.60
2017-12-23T16:11:58.662Z,3.20
2017-12-23T16:14:27.442Z,3.70
2017-12-23T16:16:53.269Z,4.45
2017-12-23T16:19:22.299Z,5.13
2017-12-23T16:21:48.290Z,3.28
2017-12-23T16:24:16.862Z,4.25
2017-12-23T16:26:42.707Z,3.20
2017-12-23T16:29:11.370Z,3.30
2017-12-23T16:31:37.224Z,16.60
2017-12-23T16:34:06.114Z,5.40
2017-12-23T16:36:31.982Z,5.85
2017-12-23T16:39:00.518Z,4.23
2017-12-23T16:41:26.376Z,4.90
2017-12-23T16:43:52.231Z,3.93
2017-12-23T16:46:19.179Z,3.90
2017-12-23T16:48:45.018Z,3.10
2017-12-23T16:51:12.379Z,3.90
2017-12-23T16:53:40.125Z,3.20
2017-12-23T16:56:09.200Z,3.62
2017-12-23T16:58:35.080Z,3.85
2017-12-23T17:01:02.447Z,4.87
2017-12-23T17:03:28.351Z,6.62
2017-12-23T17:05:57.367Z,7.77
2017-12-23T17:08:23.354Z,5.28
2017-12-23T17:10:52.912Z,6.75
2017-12-23T17:13:18.823Z,4.95
2017-12-23T17:15:46.056Z,5.40
2017-12-23T17:18:11.878Z,5.70
2017-12-23T17:20:37.748Z,5.57
2017-12-23T17:23:03.732Z,8.53
2017-12-23T17:25:29.735Z,6.47
2017-12-23T17:27:59.651Z,6.62
2017-12-23T17:30:25.540Z,6.22
2017-12-23T17:32:52.991Z,10.57
2017-12-23T17:35:18.870Z,6.62
2017-12-23T17:37:47.913Z,7.07
2017-12-23T17:40:13.786Z,8.80
2017-12-23T17:42:43.392Z,10.70
2017-12-23T17:45:09.231Z,10.20
2017-12-23T17:47:36.785Z,10.40
2017-12-23T17:50:02.672Z,8.18
2017-12-23T17:52:32.786Z,3.80
2017-12-23T17:54:58.717Z,16.42
2017-12-23T17:57:24.646Z,17.47
2017-12-23T17:59:50.573Z,9.03
2017-12-23T18:02:16.469Z,5.70
2017-12-23T18:04:43.067Z,7.83
2017-12-23T18:07:08.952Z,6.47
2017-12-23T18:09:43.107Z,3.67
2017-12-23T18:12:09.002Z,3.53
2017-12-23T18:14:34.922Z,3.37
2017-12-23T18:17:00.754Z,3.70
2017-12-23T18:19:27.850Z,5.70
2017-12-23T18:21:53.731Z,3.35
2017-12-23T18:24:23.587Z,4.43
2017-12-23T18:26:49.465Z,3.40
2017-12-23T18:29:16.793Z,3.60
2017-12-23T18:31:42.674Z,4.18
2017-12-23T18:34:08.499Z,3.73
2017-12-23T18:36:34.426Z,2.80
2017-12-23T18:39:00.335Z,3.77
2017-12-23T18:41:28.873Z,2.83
2017-12-23T18:43:54.765Z,3.72
2017-12-23T18:46:24.028Z,4.43
2017-12-23T18:48:49.888Z,4.35
2017-12-23T18:51:19.562Z,4.03
2017-12-23T18:53:45.566Z,3.03
2017-12-23T18:56:12.549Z,4.28
2017-12-23T18:58:38.398Z,5.90
2017-12-23T19:01:07.315Z,6.20
2017-12-23T19:03:33.252Z,4.40
2017-12-23T19:06:01.980Z,4.40
2017-12-23T19:08:27.805Z,8.68
2017-12-23T19:10:53.692Z,9.13
2017-12-23T19:13:19.571Z,9.60
2017-12-23T19:15:46.868Z,7.00
2017-12-23T19:18:14.538Z,4.90
2017-12-23T19:20:40.430Z,4.60
2017-12-23T19:23:08.843Z,4.40
2017-12-23T19:25:34.717Z,8.88
2017-12-23T19:28:04.334Z,2.63
2017-12-23T19:30:30.217Z,2.80
2017-12-23T19:32:59.361Z,2.53
2017-12-23T19:35:25.213Z,5.95
2017-12-23T19:37:54.707Z,9.60
2017-12-23T19:40:20.620Z,4.47
2017-12-23T19:42:47.690Z,3.53
2017-12-23T19:45:13.542Z,3.05
2017-12-23T19:47:39.422Z,2.63
2017-12-23T19:50:05.326Z,2.67
2017-12-23T19:52:31.189Z,2.20
2017-12-23T19:55:00.747Z,2.03
2017-12-23T19:57:26.670Z,2.70
2017-12-23T19:59:58.914Z,1.33
2017-12-23T20:02:24.837Z,1.95
2017-12-23T20:04:50.700Z,3.03
2017-12-23T20:07:16.554Z,2.07
2017-12-23T20:09:43.530Z,2.27
2017-12-23T20:12:09.408Z,2.85
2017-12-23T20:14:38.380Z,4.83
2017-12-23T20:17:04.271Z,3.42
2017-12-23T20:19:32.803Z,2.87
2017-12-23T20:21:58.675Z,2.30
2017-12-23T20:24:24.569Z,6.23
2017-12-23T20:26:50.458Z,5.37
2017-12-23T20:29:16.340Z,5.20
2017-12-23T20:31:44.624Z,3.27
2017-12-23T20:34:10.504Z,2.80
2017-12-23T20:36:39.268Z,5.20
2017-12-23T20:39:05.149Z,6.95
2017-12-23T20:41:34.768Z,6.87
2017-12-23T20:44:00.636Z,6.10
2017-12-23T20:46:28.602Z,7.33
2017-12-23T20:48:54.469Z,4.20
2017-12-23T20:51:23.191Z,8.40
2017-12-23T20:53:49.058Z,7.43
2017-12-23T20:58:45.693Z,49.83
2017-12-23T21:01:11.592Z,10.77
2017-12-23T21:03:39.505Z,3.93
2017-12-23T21:06:05.389Z,3.42
2017-12-23T21:08:31.312Z,3.67
2017-12-23T21:10:57.235Z,8.73
2017-12-23T21:13:25.099Z,10.33
2017-12-23T21:15:50.909Z,6.00
2017-12-23T21:18:19.888Z,5.60
2017-12-23T21:20:45.719Z,5.32
2017-12-23T21:23:15.400Z,3.67
2017-12-23T21:25:41.268Z,6.25
2017-12-23T21:28:08.822Z,3.70
2017-12-23T21:30:34.686Z,6.22
2017-12-23T21:33:03.503Z,6.30
2017-12-23T21:35:29.340Z,4.05
2017-12-23T21:37:55.223Z,5.30
2017-12-23T21:40:21.111Z,4.60
2017-12-23T21:42:47.002Z,2.90
2017-12-23T21:45:15.455Z,3.30
2017-12-23T21:47:41.338Z,3.80
2017-12-23T21:50:10.244Z,3.83
2017-12-23T21:52:36.108Z,3.42
2017-12-23T21:55:04.886Z,2.30
2017-12-23T21:57:30.762Z,2.33
2017-12-23T21:59:59.885Z,2.10
2017-12-23T22:02:25.749Z,2.75
2017-12-23T22:04:54.966Z,2.90
2017-12-23T22:07:20.812Z,4.90
2017-12-23T22:09:48.908Z,3.47
2017-12-23T22:12:14.799Z,3.37
2017-12-23T22:14:40.707Z,4.43
2017-12-23T22:17:06.587Z,4.60
2017-12-23T22:19:32.479Z,3.67
2017-12-23T22:22:02.193Z,6.17
2017-12-23T22:24:28.091Z,3.25
2017-12-23T22:26:55.462Z,2.90
2017-12-23T22:29:21.342Z,25.80
2017-12-23T22:31:49.804Z,7.50
2017-12-23T22:34:15.654Z,5.22
2017-12-23T22:36:44.419Z,3.60
2017-12-23T22:39:10.300Z,2.20
2017-12-23T22:41:38.930Z,1.80
2017-12-23T22:44:04.796Z,2.08
2017-12-23T22:49:01.534Z,1.52
2017-12-23T22:51:27.419Z,1.57
2017-12-23T22:53:53.323Z,1.33
2017-12-23T22:56:19.162Z,1.27
2017-12-23T22:58:45.968Z,1.77
2017-12-23T23:01:11.827Z,1.37
2017-12-23T23:03:40.609Z,1.10
2017-12-23T23:06:06.510Z,0.90
2017-12-23T23:08:39.174Z,0.97
2017-12-23T23:11:05.038Z,0.80
2017-12-23T23:13:30.911Z,0.63
2017-12-23T23:15:56.794Z,0.80
2017-12-23T23:18:25.684Z,1.00
2017-12-23T23:20:51.548Z,0.73
2017-12-23T23:23:20.995Z,0.80
2017-12-23T23:25:50.601Z,1.10
2017-12-23T23:28:16.455Z,1.10
2017-12-23T23:30:42.321Z,1.00
2017-12-23T23:33:08.215Z,1.30
2017-12-23T23:35:34.110Z,1.00
2017-12-23T23:37:59.978Z,1.37
2017-12-23T23:40:25.854Z,1.23
2017-12-23T23:42:51.714Z,1.50
2017-12-23T23:45:20.124Z,1.20
2017-12-23T23:47:46.092Z,1.00
2017-12-23T23:52:42.887Z,1.10
2017-12-23T23:55:10.100Z,2.00
2017-12-23T23:57:35.939Z,2.03
